Ford Airport


Codes: KIMT/IMT
Name: Ford Airport
City: Iron Mountain / Kingsford
Country: United States
Elevation: 1182 ft.
Website:
Wikipedia:

Photos at Ford Airport


   Photos courtesy of SpottingLog. You can add your own sightings and photos by signing up for a free trial today.



No photos found.

Weather at Ford Airport


Time (UTC)DescriptionTempratureWindCloud coverageVisibilityPressureHumidity
18-Apr-2024 00:00Light Rain7°C9 mph, NW100%10000m1002hPa89%
18-Apr-2024 03:00Light Rain5°C13 mph, NW100%10000m1005hPa91%
18-Apr-2024 06:00Overcast Clouds5°C11 mph, NW100%10000m1009hPa91%
18-Apr-2024 09:00Overcast Clouds4°C11 mph, NW100%10000m1011hPa88%
18-Apr-2024 12:00Overcast Clouds4°C9 mph, NW88%10000m1014hPa88%
18-Apr-2024 15:00Overcast Clouds10°C7 mph, NW93%10000m1013hPa62%
18-Apr-2024 18:00Overcast Clouds15°C9 mph, W95%10000m1012hPa43%
18-Apr-2024 21:00Overcast Clouds13°C7 mph, SW100%10000m1011hPa52%
19-Apr-2024 00:00Light Rain11°C7 mph, SW100%10000m1012hPa61%
19-Apr-2024 03:00Overcast Clouds6°C7 mph, W88%10000m1013hPa69%
19-Apr-2024 06:00Broken Clouds4°C7 mph, W69%10000m1013hPa64%
19-Apr-2024 09:00Clear Sky2°C9 mph, W0%10000m1013hPa67%
19-Apr-2024 12:00Clear Sky2°C9 mph, W2%10000m1014hPa67%
19-Apr-2024 15:00Scattered Clouds5°C13 mph, W38%10000m1013hPa41%
19-Apr-2024 18:00Broken Clouds5°C13 mph, W69%10000m1013hPa44%
19-Apr-2024 21:00Overcast Clouds7°C13 mph, W97%10000m1012hPa36%
20-Apr-2024 00:00Broken Clouds5°C11 mph, W83%10000m1013hPa53%
20-Apr-2024 03:00Broken Clouds2°C9 mph, W69%10000m1015hPa61%
20-Apr-2024 06:00Overcast Clouds1°C9 mph, W85%10000m1015hPa69%
20-Apr-2024 09:00Scattered Clouds-0°C9 mph, W33%10000m1015hPa77%
20-Apr-2024 12:00Scattered Clouds-1°C11 mph, W34%10000m1017hPa70%
20-Apr-2024 15:00Broken Clouds3°C13 mph, NW76%10000m1018hPa52%
20-Apr-2024 18:00Overcast Clouds4°C13 mph, NW88%10000m1019hPa49%
20-Apr-2024 21:00Overcast Clouds6°C11 mph, NW100%10000m1019hPa44%
21-Apr-2024 00:00Overcast Clouds5°C9 mph, NW99%10000m1019hPa51%
21-Apr-2024 03:00Few Clouds0°C4 mph, W11%10000m1020hPa71%
21-Apr-2024 06:00Clear Sky0°C7 mph, W8%10000m1020hPa67%
21-Apr-2024 09:00Clear Sky-0°C7 mph, W2%10000m1019hPa69%
21-Apr-2024 12:00Clear Sky1°C7 mph, W1%10000m1019hPa64%
21-Apr-2024 15:00Clear Sky8°C11 mph, NW0%10000m1018hPa38%
21-Apr-2024 18:00Clear Sky12°C13 mph, NW3%10000m1016hPa26%
21-Apr-2024 21:00Clear Sky13°C11 mph, NW2%10000m1014hPa26%
22-Apr-2024 00:00Clear Sky9°C7 mph, NW2%10000m1015hPa44%
22-Apr-2024 03:00Clear Sky5°C4 mph, W0%10000m1016hPa60%
22-Apr-2024 06:00Clear Sky4°C7 mph, W0%10000m1016hPa72%
22-Apr-2024 09:00Clear Sky2°C7 mph, W2%10000m1016hPa77%
22-Apr-2024 12:00Scattered Clouds3°C4 mph, W27%10000m1017hPa72%
22-Apr-2024 15:00Overcast Clouds10°C4 mph, W100%10000m1015hPa43%
22-Apr-2024 18:00Overcast Clouds14°C7 mph, SW100%10000m1013hPa33%
22-Apr-2024 21:00Overcast Clouds15°C9 mph, SW100%10000m1011hPa31%